METAR Data
IDs: Format: Raw Decoded Include TAF

Data at: 1340 UTC 14 Dec 2019

METAR for:KSUX (Sioux City/Day Fld, IA, US)
Text:KSUX 141252Z 33012KT 9SM OVC016 M09/M12 A3001 RMK AO2 UPB17E28 SLP180 P0000 T10891117
Temperature: -8.9°C ( 16°F)
Dewpoint:-11.7°C ( 11°F) [RH = 80%]
Pressure (altimeter):30.01 inches Hg (1016.3 mb) [Sea level pressure: 1018.0 mb]
Winds:from the NNW (330 degrees) at 14 MPH (12 knots; 6.2 m/s)
Visibility: 9 sm ( 14 km)
Ceiling:1600 feet AGL
Clouds: overcast cloud deck at 1600 feet AGL